Terminal Aerodrome Forecast
Issued by NWS Northern Indiana

Home | Current Version | Previous Version | Graphics & Text | Print | Product List | Glossary On
Versions: 1 2 3 4 5 6 7 8 9 10 11 12 13 14
142
FTUS43 KIWX 211001 AAA
TAFFWA
TAF AMD
KFWA 211001Z 2110/2206 31005KT 4SM BR BKN250
      TEMPO 2110/2113 1/4SM FG VV002
     FM211500 33009KT P6SM BKN150=

USA.gov is the U.S. government's official web portal to all federal, state and local government web resources and services.